F/V Kersatao — FHQJ — position and weather

sailwx.info

Track history (hours):
 
Tides and Currents Weather Stations Pressure Air Temp Water Temp Dewpoint Dewpoint Depression Visibility Wind Speed Wind Dir Waves Ship Positions

F/V Kersatao

Last reported at 2017-Nov-24 23:38 UTC. Time now 2017-Nov-25 02:05 UTC.
Position N 47°18' W 002°31'.

Length 21 m.

Type: Other ship. MMSI: 227879000.

Date/timePositionNaut miles runAvg speedWind from/ knotsBaromVisibWave heightAir tempDewpointWater temp
2017-Nov-24 23:38N 47°18' W 002°31'0 0.0
2017-Nov-24 23:28N 47°18' W 002°31'0 0.0
2017-Nov-24 22:55N 47°18' W 002°31'0 0.0
2017-Nov-24 22:27N 47°18' W 002°31'0 0.0
2017-Nov-24 21:57N 47°18' W 002°31'0 0.0
2017-Nov-24 21:29N 47°18' W 002°31'0 0.0
2017-Nov-24 20:59N 47°18' W 002°31'1 1.5
2017-Nov-24 20:30N 47°19' W 002°31'3 5.5
2017-Nov-24 19:59N 47°17' W 002°35'2 0.0
2017-Nov-23 03:41N 47°15' W 002°34'2 7.8
2017-Nov-23 03:25N 47°17' W 002°34'2 5.4
2017-Nov-23 03:00N 47°19' W 002°32'1 2.3
2017-Nov-23 02:27N 47°18' W 002°31'0 0.0
2017-Nov-23 02:00N 47°18' W 002°31'0 0.0
2017-Nov-23 01:29N 47°18' W 002°31'8 5.4
2017-Nov-22 23:54N 47°10' W 002°32'4 8.7
2017-Nov-22 23:24N 47°05' W 002°31'4 1.1
2017-Nov-22 19:33N 47°01' W 002°32'0 2.7
2017-Nov-22 19:30N 47°01' W 002°32'  
2017-Nov-17 09:56N 46°58' W 002°43'2 2.6
2017-Nov-17 09:02N 47°01' W 002°44'019.6
2017-Nov-17 09:00N 47°01' W 002°44'1 2.2
2017-Nov-17 08:30N 47°00' W 002°43'2 3.1
2017-Nov-17 08:00N 46°59' W 002°41'2 3.1
2017-Nov-17 07:30N 46°58' W 002°40'1 2.2
2017-Nov-17 06:55N 46°57' W 002°41'1 2.5
2017-Nov-17 06:25N 46°58' W 002°42'3 1.6
2017-Nov-17 04:40N 47°00' W 002°44'0 2.8
2017-Nov-17 04:30N 46°60' W 002°44'2 2.9
2017-Nov-17 03:59N 46°58' W 002°43'1 2.9
2017-Nov-17 03:30N 46°57' W 002°42'1 2.6
2017-Nov-17 03:00N 46°57' W 002°40'2 2.7
2017-Nov-17 02:11N 46°59' W 002°40'1 3.1
2017-Nov-17 01:55N 47°00' W 002°40'1 2.1
2017-Nov-17 01:30N 46°60' W 002°41'1 2.6
2017-Nov-17 01:00N 46°59' W 002°40'1 2.5
2017-Nov-17 00:30N 46°60' W 002°42'1 2.1
2017-Nov-17 00:01N 46°59' W 002°43'2 3.1
2017-Nov-16 23:30N 46°57' W 002°42'1 2.4
2017-Nov-16 23:01N 46°57' W 002°41'2 2.0
2017-Nov-16 22:13N 46°59' W 002°40'1 2.7
2017-Nov-16 21:54N 46°59' W 002°41'2 2.7
2017-Nov-16 21:00N 47°01' W 002°43'1 1.9
2017-Nov-16 20:30N 47°00' W 002°43'1 3.0
2017-Nov-16 20:00N 46°59' W 002°43'1 2.9
2017-Nov-16 19:30N 46°57' W 002°42'1 2.7
2017-Nov-16 19:00N 46°57' W 002°40'1 2.6
2017-Nov-16 18:30N 46°58' W 002°40'2 3.1
2017-Nov-16 17:50N 47°00' W 002°41'1 3.0
2017-Nov-16 17:30N 47°01' W 002°42'2 2.7
2017-Nov-16 16:56N 47°00' W 002°44'1 2.0
2017-Nov-16 16:26N 46°60' W 002°43'1 2.8
2017-Nov-16 16:00N 46°59' W 002°43'1 2.8
2017-Nov-16 15:30N 46°57' W 002°42'1 2.4
2017-Nov-16 15:00N 46°57' W 002°40'1 2.3
2017-Nov-16 14:30N 46°58' W 002°40'1 2.9
2017-Nov-16 14:00N 46°60' W 002°42'2 2.9
2017-Nov-16 13:29N 47°01' W 002°43'1 1.4
2017-Nov-16 13:01N 47°01' W 002°44'1 2.7
2017-Nov-16 12:30N 47°00' W 002°43'1 2.8
2017-Nov-16 12:00N 46°59' W 002°41'1 2.9
2017-Nov-16 11:30N 46°58' W 002°39'2 3.0
2017-Nov-16 11:00N 46°57' W 002°41'1 2.6
2017-Nov-16 10:28N 46°58' W 002°42'1 3.1
2017-Nov-16 10:00N 46°59' W 002°43'1 2.7
2017-Nov-16 09:30N 47°00' W 002°44'1 2.3
2017-Nov-16 09:00N 46°59' W 002°43'2 3.1
2017-Nov-16 08:30N 46°58' W 002°42'1 2.7
2017-Nov-16 07:57N 46°57' W 002°41'1 3.1
2017-Nov-16 07:30N 46°58' W 002°39'1 2.8
2017-Nov-16 07:00N 46°59' W 002°38'1 2.8
2017-Nov-16 06:30N 46°60' W 002°40'1 3.0
2017-Nov-16 06:00N 47°01' W 002°41'2 3.2
2017-Nov-16 05:29N 47°02' W 002°42'4 9.2
2017-Nov-16 05:00N 47°07' W 002°41'5 9.3
2017-Nov-16 04:30N 47°11' W 002°39'5 9.2
2017-Nov-16 04:00N 47°16' W 002°36'5 9.3
2017-Nov-16 03:30N 47°19' W 002°32'2 3.1
2017-Nov-16 03:00N 47°18' W 002°31'0 0.0
2017-Nov-16 02:31N 47°18' W 002°31'0 0.0
2017-Nov-16 02:00N 47°18' W 002°31'4 5.8
2017-Nov-16 01:23N 47°19' W 002°36'4 9.8
2017-Nov-16 00:59N 47°18' W 002°41'710.0
2017-Nov-16 00:20N 47°16' W 002°51'2 6.0
2017-Nov-16 00:00N 47°16' W 002°53'1 2.9
2017-Nov-15 23:30N 47°18' W 002°53'1 2.7
2017-Nov-15 22:59N 47°17' W 002°51'1 3.1
2017-Nov-15 22:31N 47°16' W 002°51'2 3.1
2017-Nov-15 21:58N 47°15' W 002°49'0 0.1
2017-Nov-15 21:29N 47°15' W 002°49'2 3.2
2017-Nov-15 21:00N 47°16' W 002°51'2 3.1
2017-Nov-15 20:30N 47°17' W 002°52'1 2.8
2017-Nov-15 20:01N 47°17' W 002°54'2 3.3
2017-Nov-15 19:30N 47°16' W 002°53'1 3.0
2017-Nov-15 19:00N 47°14' W 002°53'1 2.5
2017-Nov-15 18:28N 47°13' W 002°54'1 2.6
2017-Nov-15 18:00N 47°13' W 002°56'4 7.9
2017-Nov-15 17:27N 47°09' W 002°58'2 4.3
2017-Nov-15 17:00N 47°07' W 002°59'3 2.5
2017-Nov-15 15:49N 47°04' W 002°59'5 1.1
2017-Nov-15 11:01N 46°60' W 002°54'3 2.3
2017-Nov-15 09:33N 47°02' W 002°58'0 3.2
2017-Nov-15 09:30N 47°02' W 002°58'2 3.1
2017-Nov-15 08:46N 47°04' W 002°60'1 3.0
2017-Nov-15 08:23N 47°05' W 003°00'1 2.7
2017-Nov-15 08:01N 47°06' W 003°00'2 2.9
2017-Nov-15 07:29N 47°08' W 002°59'3 5.3
2017-Nov-15 06:57N 47°10' W 002°57'5 9.7
2017-Nov-15 06:28N 47°15' W 002°55'3 6.5
2017-Nov-15 06:00N 47°17' W 002°53'2 3.3
2017-Nov-15 05:30N 47°17' W 002°51'2 2.0
2017-Nov-15 04:45N 47°16' W 002°53'1 2.9
2017-Nov-15 04:25N 47°17' W 002°54'1 2.9
2017-Nov-15 04:00N 47°18' W 002°52'1 2.8
2017-Nov-15 03:30N 47°17' W 002°51'1 3.0
2017-Nov-15 03:01N 47°15' W 002°50'1 2.6
2017-Nov-15 02:31N 47°15' W 002°48'1 1.7
2017-Nov-15 01:54N 47°14' W 002°50'1 2.4
2017-Nov-15 01:30N 47°15' W 002°51'2 2.6
2017-Nov-15 00:43N 47°16' W 002°53'1 3.3
2017-Nov-15 00:30N 47°17' W 002°54'1 2.5
2017-Nov-15 00:00N 47°18' W 002°52'  
Track history (hours):
 
Tides and Currents Weather Stations Pressure Air Temp Water Temp Dewpoint Dewpoint Depression Visibility Wind Speed Wind Dir Waves Ship Positions

F/V Kersatao

Last reported at 2017-Nov-24 23:38 UTC. Time now 2017-Nov-25 02:05 UTC.
Position N 47°18' W 002°31'.

Length 21 m.

Type: Other ship. MMSI: 227879000.

Date/timePositionNaut miles runAvg speedWind from/ knotsBaromVisibWave heightAir tempDewpointWater temp
2017-Nov-24 23:38N 47°18' W 002°31'0 0.0
2017-Nov-24 23:28N 47°18' W 002°31'0 0.0
2017-Nov-24 22:55N 47°18' W 002°31'0 0.0
2017-Nov-24 22:27N 47°18' W 002°31'0 0.0
2017-Nov-24 21:57N 47°18' W 002°31'0 0.0
2017-Nov-24 21:29N 47°18' W 002°31'0 0.0
2017-Nov-24 20:59N 47°18' W 002°31'1 1.5
2017-Nov-24 20:30N 47°19' W 002°31'3 5.5
2017-Nov-24 19:59N 47°17' W 002°35'2 0.0
2017-Nov-23 03:41N 47°15' W 002°34'2 7.8
2017-Nov-23 03:25N 47°17' W 002°34'2 5.4
2017-Nov-23 03:00N 47°19' W 002°32'1 2.3
2017-Nov-23 02:27N 47°18' W 002°31'0 0.0
2017-Nov-23 02:00N 47°18' W 002°31'0 0.0
2017-Nov-23 01:29N 47°18' W 002°31'8 5.4
2017-Nov-22 23:54N 47°10' W 002°32'4 8.7
2017-Nov-22 23:24N 47°05' W 002°31'4 1.1
2017-Nov-22 19:33N 47°01' W 002°32'0 2.7
2017-Nov-22 19:30N 47°01' W 002°32'  
2017-Nov-17 09:56N 46°58' W 002°43'2 2.6
2017-Nov-17 09:02N 47°01' W 002°44'019.6
2017-Nov-17 09:00N 47°01' W 002°44'1 2.2
2017-Nov-17 08:30N 47°00' W 002°43'2 3.1
2017-Nov-17 08:00N 46°59' W 002°41'2 3.1
2017-Nov-17 07:30N 46°58' W 002°40'1 2.2
2017-Nov-17 06:55N 46°57' W 002°41'1 2.5
2017-Nov-17 06:25N 46°58' W 002°42'3 1.6
2017-Nov-17 04:40N 47°00' W 002°44'0 2.8
2017-Nov-17 04:30N 46°60' W 002°44'2 2.9
2017-Nov-17 03:59N 46°58' W 002°43'1 2.9
2017-Nov-17 03:30N 46°57' W 002°42'1 2.6
2017-Nov-17 03:00N 46°57' W 002°40'2 2.7
2017-Nov-17 02:11N 46°59' W 002°40'1 3.1
2017-Nov-17 01:55N 47°00' W 002°40'1 2.1
2017-Nov-17 01:30N 46°60' W 002°41'1 2.6
2017-Nov-17 01:00N 46°59' W 002°40'1 2.5
2017-Nov-17 00:30N 46°60' W 002°42'1 2.1
2017-Nov-17 00:01N 46°59' W 002°43'2 3.1
2017-Nov-16 23:30N 46°57' W 002°42'1 2.4
2017-Nov-16 23:01N 46°57' W 002°41'2 2.0
2017-Nov-16 22:13N 46°59' W 002°40'1 2.7
2017-Nov-16 21:54N 46°59' W 002°41'2 2.7
2017-Nov-16 21:00N 47°01' W 002°43'1 1.9
2017-Nov-16 20:30N 47°00' W 002°43'1 3.0
2017-Nov-16 20:00N 46°59' W 002°43'1 2.9
2017-Nov-16 19:30N 46°57' W 002°42'1 2.7
2017-Nov-16 19:00N 46°57' W 002°40'1 2.6
2017-Nov-16 18:30N 46°58' W 002°40'2 3.1
2017-Nov-16 17:50N 47°00' W 002°41'1 3.0
2017-Nov-16 17:30N 47°01' W 002°42'2 2.7
2017-Nov-16 16:56N 47°00' W 002°44'1 2.0
2017-Nov-16 16:26N 46°60' W 002°43'1 2.8
2017-Nov-16 16:00N 46°59' W 002°43'1 2.8
2017-Nov-16 15:30N 46°57' W 002°42'1 2.4
2017-Nov-16 15:00N 46°57' W 002°40'1 2.3
2017-Nov-16 14:30N 46°58' W 002°40'1 2.9
2017-Nov-16 14:00N 46°60' W 002°42'2 2.9
2017-Nov-16 13:29N 47°01' W 002°43'1 1.4
2017-Nov-16 13:01N 47°01' W 002°44'1 2.7
2017-Nov-16 12:30N 47°00' W 002°43'1 2.8
2017-Nov-16 12:00N 46°59' W 002°41'1 2.9
2017-Nov-16 11:30N 46°58' W 002°39'2 3.0
2017-Nov-16 11:00N 46°57' W 002°41'1 2.6
2017-Nov-16 10:28N 46°58' W 002°42'1 3.1
2017-Nov-16 10:00N 46°59' W 002°43'1 2.7
2017-Nov-16 09:30N 47°00' W 002°44'1 2.3
2017-Nov-16 09:00N 46°59' W 002°43'2 3.1
2017-Nov-16 08:30N 46°58' W 002°42'1 2.7
2017-Nov-16 07:57N 46°57' W 002°41'1 3.1
2017-Nov-16 07:30N 46°58' W 002°39'1 2.8
2017-Nov-16 07:00N 46°59' W 002°38'1 2.8
2017-Nov-16 06:30N 46°60' W 002°40'1 3.0
2017-Nov-16 06:00N 47°01' W 002°41'2 3.2
2017-Nov-16 05:29N 47°02' W 002°42'4 9.2
2017-Nov-16 05:00N 47°07' W 002°41'5 9.3
2017-Nov-16 04:30N 47°11' W 002°39'5 9.2
2017-Nov-16 04:00N 47°16' W 002°36'5 9.3
2017-Nov-16 03:30N 47°19' W 002°32'2 3.1
2017-Nov-16 03:00N 47°18' W 002°31'0 0.0
2017-Nov-16 02:31N 47°18' W 002°31'0 0.0
2017-Nov-16 02:00N 47°18' W 002°31'4 5.8
2017-Nov-16 01:23N 47°19' W 002°36'4 9.8
2017-Nov-16 00:59N 47°18' W 002°41'710.0
2017-Nov-16 00:20N 47°16' W 002°51'2 6.0
2017-Nov-16 00:00N 47°16' W 002°53'1 2.9
2017-Nov-15 23:30N 47°18' W 002°53'1 2.7
2017-Nov-15 22:59N 47°17' W 002°51'1 3.1
2017-Nov-15 22:31N 47°16' W 002°51'2 3.1
2017-Nov-15 21:58N 47°15' W 002°49'0 0.1
2017-Nov-15 21:29N 47°15' W 002°49'2 3.2
2017-Nov-15 21:00N 47°16' W 002°51'2 3.1
2017-Nov-15 20:30N 47°17' W 002°52'1 2.8
2017-Nov-15 20:01N 47°17' W 002°54'2 3.3
2017-Nov-15 19:30N 47°16' W 002°53'1 3.0
2017-Nov-15 19:00N 47°14' W 002°53'1 2.5
2017-Nov-15 18:28N 47°13' W 002°54'1 2.6
2017-Nov-15 18:00N 47°13' W 002°56'4 7.9
2017-Nov-15 17:27N 47°09' W 002°58'2 4.3
2017-Nov-15 17:00N 47°07' W 002°59'3 2.5
2017-Nov-15 15:49N 47°04' W 002°59'5 1.1
2017-Nov-15 11:01N 46°60' W 002°54'3 2.3
2017-Nov-15 09:33N 47°02' W 002°58'0 3.2
2017-Nov-15 09:30N 47°02' W 002°58'2 3.1
2017-Nov-15 08:46N 47°04' W 002°60'1 3.0
2017-Nov-15 08:23N 47°05' W 003°00'1 2.7
2017-Nov-15 08:01N 47°06' W 003°00'2 2.9
2017-Nov-15 07:29N 47°08' W 002°59'3 5.3
2017-Nov-15 06:57N 47°10' W 002°57'5 9.7
2017-Nov-15 06:28N 47°15' W 002°55'3 6.5
2017-Nov-15 06:00N 47°17' W 002°53'2 3.3
2017-Nov-15 05:30N 47°17' W 002°51'2 2.0
2017-Nov-15 04:45N 47°16' W 002°53'1 2.9
2017-Nov-15 04:25N 47°17' W 002°54'1 2.9
2017-Nov-15 04:00N 47°18' W 002°52'1 2.8
2017-Nov-15 03:30N 47°17' W 002°51'1 3.0
2017-Nov-15 03:01N 47°15' W 002°50'1 2.6
2017-Nov-15 02:31N 47°15' W 002°48'1 1.7
2017-Nov-15 01:54N 47°14' W 002°50'1 2.4
2017-Nov-15 01:30N 47°15' W 002°51'2 2.6
2017-Nov-15 00:43N 47°16' W 002°53'1 3.3
2017-Nov-15 00:30N 47°17' W 002°54'1 2.5
2017-Nov-15 00:00N 47°18' W 002°52'  

Dump ship's entire track history